sensor_id;sensor_type;location;lat;lon;timestamp;P1;durP1;ratioP1;P2;durP2;ratioP2
15258;SDS011;34462;51.368;12.364;2022-10-26T00:01:19;8.43;;;6.07;;
15258;SDS011;34462;51.368;12.364;2022-10-26T00:03:47;8.47;;;5.80;;
15258;SDS011;34462;51.368;12.364;2022-10-26T00:06:16;7.83;;;6.17;;
15258;SDS011;34462;51.368;12.364;2022-10-26T00:08:46;6.67;;;5.93;;
15258;SDS011;34462;51.368;12.364;2022-10-26T00:11:17;9.50;;;5.80;;
15258;SDS011;34462;51.368;12.364;2022-10-26T00:13:45;10.77;;;5.73;;
15258;SDS011;34462;51.368;12.364;2022-10-26T00:16:16;7.03;;;5.83;;
15258;SDS011;34462;51.368;12.364;2022-10-26T00:18:48;6.20;;;5.60;;
15258;SDS011;34462;51.368;12.364;2022-10-26T00:21:16;9.80;;;6.00;;
15258;SDS011;34462;51.368;12.364;2022-10-26T00:23:45;8.83;;;5.67;;
15258;SDS011;34462;51.368;12.364;2022-10-26T00:26:13;7.37;;;6.10;;
15258;SDS011;34462;51.368;12.364;2022-10-26T00:28:42;7.60;;;6.17;;
15258;SDS011;34462;51.368;12.364;2022-10-26T00:31:11;7.90;;;5.73;;
15258;SDS011;34462;51.368;12.364;2022-10-26T00:33:41;8.03;;;5.40;;
15258;SDS011;34462;51.368;12.364;2022-10-26T00:36:10;7.63;;;6.20;;
15258;SDS011;34462;51.368;12.364;2022-10-26T00:38:41;7.07;;;6.37;;
15258;SDS011;34462;51.368;12.364;2022-10-26T00:41:14;7.30;;;5.73;;
15258;SDS011;34462;51.368;12.364;2022-10-26T00:43:45;6.27;;;5.67;;
15258;SDS011;34462;51.368;12.364;2022-10-26T00:46:14;9.20;;;6.23;;
15258;SDS011;34462;51.368;12.364;2022-10-26T00:48:48;9.00;;;6.07;;
15258;SDS011;34462;51.368;12.364;2022-10-26T00:51:22;7.93;;;5.67;;
15258;SDS011;34462;51.368;12.364;2022-10-26T00:53:58;6.90;;;5.43;;
15258;SDS011;34462;51.368;12.364;2022-10-26T00:56:29;8.03;;;5.63;;
15258;SDS011;34462;51.368;12.364;2022-10-26T00:59:01;7.57;;;6.20;;
15258;SDS011;34462;51.368;12.364;2022-10-26T01:01:34;8.50;;;5.70;;
15258;SDS011;34462;51.368;12.364;2022-10-26T01:04:07;6.40;;;5.70;;
15258;SDS011;34462;51.368;12.364;2022-10-26T01:06:36;6.40;;;5.70;;
15258;SDS011;34462;51.368;12.364;2022-10-26T01:09:05;7.00;;;5.67;;
15258;SDS011;34462;51.368;12.364;2022-10-26T01:11:33;6.77;;;5.73;;
15258;SDS011;34462;51.368;12.364;2022-10-26T01:14:03;9.20;;;7.83;;
15258;SDS011;34462;51.368;12.364;2022-10-26T01:16:39;12.67;;;10.10;;
15258;SDS011;34462;51.368;12.364;2022-10-26T01:19:49;10.50;;;9.13;;
15258;SDS011;34462;51.368;12.364;2022-10-26T01:22:53;12.33;;;8.67;;
15258;SDS011;34462;51.368;12.364;2022-10-26T01:25:36;10.73;;;7.73;;
15258;SDS011;34462;51.368;12.364;2022-10-26T01:28:36;9.13;;;7.13;;
15258;SDS011;34462;51.368;12.364;2022-10-26T01:31:36;8.03;;;6.27;;
15258;SDS011;34462;51.368;12.364;2022-10-26T01:34:11;9.77;;;7.97;;
15258;SDS011;34462;51.368;12.364;2022-10-26T01:36:48;10.53;;;7.97;;
15258;SDS011;34462;51.368;12.364;2022-10-26T01:39:23;8.53;;;7.43;;
15258;SDS011;34462;51.368;12.364;2022-10-26T01:42:03;9.13;;;6.73;;
15258;SDS011;34462;51.368;12.364;2022-10-26T01:44:36;8.27;;;6.40;;
15258;SDS011;34462;51.368;12.364;2022-10-26T01:47:11;9.17;;;6.33;;
15258;SDS011;34462;51.368;12.364;2022-10-26T01:49:43;6.20;;;5.60;;
15258;SDS011;34462;51.368;12.364;2022-10-26T01:52:19;8.57;;;5.80;;
15258;SDS011;34462;51.368;12.364;2022-10-26T01:54:49;6.57;;;5.90;;
15258;SDS011;34462;51.368;12.364;2022-10-26T01:57:17;9.23;;;5.67;;
15258;SDS011;34462;51.368;12.364;2022-10-26T01:59:59;8.13;;;5.60;;
15258;SDS011;34462;51.368;12.364;2022-10-26T02:02:50;8.37;;;5.63;;
15258;SDS011;34462;51.368;12.364;2022-10-26T02:05:39;8.10;;;5.43;;
15258;SDS011;34462;51.368;12.364;2022-10-26T02:08:26;7.53;;;5.40;;
15258;SDS011;34462;51.368;12.364;2022-10-26T02:11:22;6.30;;;5.53;;
15258;SDS011;34462;51.368;12.364;2022-10-26T02:14:05;6.87;;;6.13;;
15258;SDS011;34462;51.368;12.364;2022-10-26T02:16:51;6.00;;;5.40;;
15258;SDS011;34462;51.368;12.364;2022-10-26T02:19:30;10.07;;;5.80;;
15258;SDS011;34462;51.368;12.364;2022-10-26T02:22:06;6.77;;;6.03;;
15258;SDS011;34462;51.368;12.364;2022-10-26T02:24:43;6.27;;;5.50;;
15258;SDS011;34462;51.368;12.364;2022-10-26T02:27:15;8.87;;;5.90;;
15258;SDS011;34462;51.368;12.364;2022-10-26T02:29:47;6.83;;;5.57;;
15258;SDS011;34462;51.368;12.364;2022-10-26T02:32:18;7.93;;;5.63;;
15258;SDS011;34462;51.368;12.364;2022-10-26T02:34:51;7.40;;;5.53;;
15258;SDS011;34462;51.368;12.364;2022-10-26T02:37:23;6.07;;;5.47;;
15258;SDS011;34462;51.368;12.364;2022-10-26T02:39:54;8.67;;;5.90;;
15258;SDS011;34462;51.368;12.364;2022-10-26T02:42:26;8.27;;;5.83;;
15258;SDS011;34462;51.368;12.364;2022-10-26T02:44:56;6.53;;;5.30;;
15258;SDS011;34462;51.368;12.364;2022-10-26T02:47:32;8.87;;;5.93;;
15258;SDS011;34462;51.368;12.364;2022-10-26T02:50:02;8.80;;;6.23;;
15258;SDS011;34462;51.368;12.364;2022-10-26T02:52:34;9.77;;;6.20;;
15258;SDS011;34462;51.368;12.364;2022-10-26T02:55:17;7.80;;;6.00;;
15258;SDS011;34462;51.368;12.364;2022-10-26T02:57:53;9.30;;;6.10;;
15258;SDS011;34462;51.368;12.364;2022-10-26T03:00:27;6.47;;;5.70;;
15258;SDS011;34462;51.368;12.364;2022-10-26T03:02:57;9.00;;;6.33;;
15258;SDS011;34462;51.368;12.364;2022-10-26T03:05:30;8.10;;;6.13;;
15258;SDS011;34462;51.368;12.364;2022-10-26T03:07:59;8.13;;;5.93;;
15258;SDS011;34462;51.368;12.364;2022-10-26T03:10:27;7.73;;;6.13;;
15258;SDS011;34462;51.368;12.364;2022-10-26T03:12:55;9.23;;;6.53;;
15258;SDS011;34462;51.368;12.364;2022-10-26T03:15:23;7.47;;;5.80;;
15258;SDS011;34462;51.368;12.364;2022-10-26T03:17:51;8.13;;;6.10;;
15258;SDS011;34462;51.368;12.364;2022-10-26T03:20:19;7.70;;;5.93;;
15258;SDS011;34462;51.368;12.364;2022-10-26T03:22:49;7.40;;;5.80;;
15258;SDS011;34462;51.368;12.364;2022-10-26T03:25:17;8.10;;;6.03;;
15258;SDS011;34462;51.368;12.364;2022-10-26T03:27:45;6.97;;;6.00;;
15258;SDS011;34462;51.368;12.364;2022-10-26T03:30:13;9.23;;;6.97;;
15258;SDS011;34462;51.368;12.364;2022-10-26T03:32:41;9.40;;;6.23;;
15258;SDS011;34462;51.368;12.364;2022-10-26T03:35:09;10.83;;;6.33;;
15258;SDS011;34462;51.368;12.364;2022-10-26T03:37:37;8.93;;;6.60;;
15258;SDS011;34462;51.368;12.364;2022-10-26T03:40:08;8.70;;;6.97;;
15258;SDS011;34462;51.368;12.364;2022-10-26T03:42:37;8.53;;;6.63;;
15258;SDS011;34462;51.368;12.364;2022-10-26T03:45:07;7.90;;;6.73;;
15258;SDS011;34462;51.368;12.364;2022-10-26T03:47:41;10.20;;;6.40;;
15258;SDS011;34462;51.368;12.364;2022-10-26T03:50:13;9.97;;;6.90;;
15258;SDS011;34462;51.368;12.364;2022-10-26T03:52:45;7.57;;;6.37;;
15258;SDS011;34462;51.368;12.364;2022-10-26T03:55:16;9.93;;;6.40;;
15258;SDS011;34462;51.368;12.364;2022-10-26T03:57:44;9.53;;;6.50;;
15258;SDS011;34462;51.368;12.364;2022-10-26T04:00:14;9.27;;;5.97;;
15258;SDS011;34462;51.368;12.364;2022-10-26T04:02:44;9.50;;;6.33;;
15258;SDS011;34462;51.368;12.364;2022-10-26T04:05:20;10.87;;;6.10;;
15258;SDS011;34462;51.368;12.364;2022-10-26T04:07:51;7.40;;;6.70;;
15258;SDS011;34462;51.368;12.364;2022-10-26T04:10:21;7.70;;;6.90;;
15258;SDS011;34462;51.368;12.364;2022-10-26T04:12:50;9.53;;;6.50;;
15258;SDS011;34462;51.368;12.364;2022-10-26T04:15:19;9.53;;;6.07;;
15258;SDS011;34462;51.368;12.364;2022-10-26T04:17:54;8.90;;;6.40;;
15258;SDS011;34462;51.368;12.364;2022-10-26T04:20:23;10.93;;;6.40;;
15258;SDS011;34462;51.368;12.364;2022-10-26T04:22:58;10.73;;;6.90;;
15258;SDS011;34462;51.368;12.364;2022-10-26T04:25:29;7.63;;;6.83;;
15258;SDS011;34462;51.368;12.364;2022-10-26T04:27:59;8.93;;;6.70;;
15258;SDS011;34462;51.368;12.364;2022-10-26T04:30:29;9.40;;;7.10;;
15258;SDS011;34462;51.368;12.364;2022-10-26T04:32:58;7.43;;;6.20;;
15258;SDS011;34462;51.368;12.364;2022-10-26T04:35:26;7.63;;;6.80;;
15258;SDS011;34462;51.368;12.364;2022-10-26T04:37:57;9.23;;;7.00;;
15258;SDS011;34462;51.368;12.364;2022-10-26T04:40:26;10.33;;;6.20;;
15258;SDS011;34462;51.368;12.364;2022-10-26T04:42:57;8.63;;;6.40;;
15258;SDS011;34462;51.368;12.364;2022-10-26T04:45:26;10.17;;;6.30;;
15258;SDS011;34462;51.368;12.364;2022-10-26T04:47:59;8.97;;;6.80;;
15258;SDS011;34462;51.368;12.364;2022-10-26T04:50:30;7.63;;;6.30;;
15258;SDS011;34462;51.368;12.364;2022-10-26T04:52:58;8.07;;;6.80;;
15258;SDS011;34462;51.368;12.364;2022-10-26T04:55:26;7.30;;;6.07;;
15258;SDS011;34462;51.368;12.364;2022-10-26T04:57:56;7.47;;;6.50;;
15258;SDS011;34462;51.368;12.364;2022-10-26T05:00:27;7.27;;;5.70;;
15258;SDS011;34462;51.368;12.364;2022-10-26T05:02:58;8.13;;;6.50;;
15258;SDS011;34462;51.368;12.364;2022-10-26T05:05:26;6.63;;;5.90;;
15258;SDS011;34462;51.368;12.364;2022-10-26T05:07:54;6.83;;;5.90;;
15258;SDS011;34462;51.368;12.364;2022-10-26T05:10:23;9.17;;;6.53;;
15258;SDS011;34462;51.368;12.364;2022-10-26T05:12:54;7.33;;;5.47;;
15258;SDS011;34462;51.368;12.364;2022-10-26T05:15:24;6.13;;;5.53;;
15258;SDS011;34462;51.368;12.364;2022-10-26T05:17:53;8.97;;;5.70;;
15258;SDS011;34462;51.368;12.364;2022-10-26T05:20:22;6.40;;;4.77;;
15258;SDS011;34462;51.368;12.364;2022-10-26T05:22:55;6.40;;;5.40;;
15258;SDS011;34462;51.368;12.364;2022-10-26T05:25:23;9.40;;;5.80;;
15258;SDS011;34462;51.368;12.364;2022-10-26T05:27:57;7.47;;;5.17;;
15258;SDS011;34462;51.368;12.364;2022-10-26T05:30:26;7.83;;;6.10;;
15258;SDS011;34462;51.368;12.364;2022-10-26T05:32:56;6.17;;;4.97;;
15258;SDS011;34462;51.368;12.364;2022-10-26T05:35:25;5.80;;;5.20;;
15258;SDS011;34462;51.368;12.364;2022-10-26T05:37:53;7.80;;;5.53;;
15258;SDS011;34462;51.368;12.364;2022-10-26T05:40:22;7.53;;;5.10;;
15258;SDS011;34462;51.368;12.364;2022-10-26T05:42:50;8.77;;;5.60;;
15258;SDS011;34462;51.368;12.364;2022-10-26T05:45:19;6.57;;;5.33;;
15258;SDS011;34462;51.368;12.364;2022-10-26T05:47:47;8.93;;;5.10;;
15258;SDS011;34462;51.368;12.364;2022-10-26T05:50:16;6.37;;;5.50;;
15258;SDS011;34462;51.368;12.364;2022-10-26T05:52:45;7.40;;;5.17;;
15258;SDS011;34462;51.368;12.364;2022-10-26T05:55:15;7.10;;;5.07;;
15258;SDS011;34462;51.368;12.364;2022-10-26T05:57:45;6.80;;;5.30;;
15258;SDS011;34462;51.368;12.364;2022-10-26T06:00:15;9.27;;;4.80;;
15258;SDS011;34462;51.368;12.364;2022-10-26T06:02:54;7.00;;;5.00;;
15258;SDS011;34462;51.368;12.364;2022-10-26T06:05:40;6.33;;;5.00;;
15258;SDS011;34462;51.368;12.364;2022-10-26T06:08:19;6.47;;;4.70;;
15258;SDS011;34462;51.368;12.364;2022-10-26T06:10:49;5.63;;;4.57;;
15258;SDS011;34462;51.368;12.364;2022-10-26T06:13:19;5.57;;;4.70;;
15258;SDS011;34462;51.368;12.364;2022-10-26T06:15:54;6.53;;;4.87;;
15258;SDS011;34462;51.368;12.364;2022-10-26T06:18:44;10.07;;;4.80;;
15258;SDS011;34462;51.368;12.364;2022-10-26T06:21:30;7.10;;;4.20;;
15258;SDS011;34462;51.368;12.364;2022-10-26T06:24:17;6.80;;;4.40;;
15258;SDS011;34462;51.368;12.364;2022-10-26T06:26:56;5.83;;;4.30;;
15258;SDS011;34462;51.368;12.364;2022-10-26T06:29:37;5.37;;;4.37;;
15258;SDS011;34462;51.368;12.364;2022-10-26T06:32:18;6.90;;;5.00;;
15258;SDS011;34462;51.368;12.364;2022-10-26T06:34:51;8.47;;;5.20;;
15258;SDS011;34462;51.368;12.364;2022-10-26T06:37:32;7.10;;;4.27;;
15258;SDS011;34462;51.368;12.364;2022-10-26T06:40:04;5.93;;;4.10;;
15258;SDS011;34462;51.368;12.364;2022-10-26T06:42:34;5.70;;;4.40;;
15258;SDS011;34462;51.368;12.364;2022-10-26T06:45:03;7.20;;;4.33;;
15258;SDS011;34462;51.368;12.364;2022-10-26T06:47:33;6.50;;;4.37;;
15258;SDS011;34462;51.368;12.364;2022-10-26T06:50:17;6.77;;;4.57;;
15258;SDS011;34462;51.368;12.364;2022-10-26T06:53:00;5.87;;;4.63;;
15258;SDS011;34462;51.368;12.364;2022-10-26T06:55:45;5.60;;;4.70;;
15258;SDS011;34462;51.368;12.364;2022-10-26T06:58:17;4.97;;;4.33;;
15258;SDS011;34462;51.368;12.364;2022-10-26T07:00:48;6.73;;;4.87;;
15258;SDS011;34462;51.368;12.364;2022-10-26T07:03:19;7.57;;;4.93;;
15258;SDS011;34462;51.368;12.364;2022-10-26T07:05:49;7.10;;;4.23;;
15258;SDS011;34462;51.368;12.364;2022-10-26T07:08:18;7.50;;;5.03;;
15258;SDS011;34462;51.368;12.364;2022-10-26T07:10:46;7.40;;;5.07;;
15258;SDS011;34462;51.368;12.364;2022-10-26T07:13:14;6.47;;;4.70;;
15258;SDS011;34462;51.368;12.364;2022-10-26T07:15:42;5.50;;;4.33;;
15258;SDS011;34462;51.368;12.364;2022-10-26T07:18:11;6.70;;;3.85;;
15258;SDS011;34462;51.368;12.364;2022-10-26T07:20:40;5.73;;;4.57;;
15258;SDS011;34462;51.368;12.364;2022-10-26T07:23:10;7.17;;;4.40;;
15258;SDS011;34462;51.368;12.364;2022-10-26T07:25:38;6.03;;;4.70;;
15258;SDS011;34462;51.368;12.364;2022-10-26T07:28:07;5.73;;;4.70;;
15258;SDS011;34462;51.368;12.364;2022-10-26T07:30:37;9.57;;;4.93;;
15258;SDS011;34462;51.368;12.364;2022-10-26T07:33:07;7.30;;;5.00;;
15258;SDS011;34462;51.368;12.364;2022-10-26T07:35:37;7.77;;;4.83;;
15258;SDS011;34462;51.368;12.364;2022-10-26T07:38:06;7.85;;;4.80;;
15258;SDS011;34462;51.368;12.364;2022-10-26T07:40:36;6.57;;;4.50;;
15258;SDS011;34462;51.368;12.364;2022-10-26T07:43:04;7.00;;;4.33;;
15258;SDS011;34462;51.368;12.364;2022-10-26T07:45:32;5.27;;;4.33;;
15258;SDS011;34462;51.368;12.364;2022-10-26T07:48:01;5.57;;;3.83;;
15258;SDS011;34462;51.368;12.364;2022-10-26T07:50:30;5.75;;;3.85;;
15258;SDS011;34462;51.368;12.364;2022-10-26T07:52:58;4.57;;;4.00;;
15258;SDS011;34462;51.368;12.364;2022-10-26T07:55:26;6.05;;;3.80;;
15258;SDS011;34462;51.368;12.364;2022-10-26T07:57:55;6.05;;;3.90;;
15258;SDS011;34462;51.368;12.364;2022-10-26T08:00:23;8.57;;;3.75;;
15258;SDS011;34462;51.368;12.364;2022-10-26T08:02:54;4.38;;;3.08;;
15258;SDS011;34462;51.368;12.364;2022-10-26T08:05:22;5.63;;;3.00;;
15258;SDS011;34462;51.368;12.364;2022-10-26T08:07:50;5.00;;;3.30;;
15258;SDS011;34462;51.368;12.364;2022-10-26T08:10:18;5.55;;;2.95;;
15258;SDS011;34462;51.368;12.364;2022-10-26T08:12:46;4.78;;;2.90;;
15258;SDS011;34462;51.368;12.364;2022-10-26T08:15:16;4.68;;;2.85;;
15258;SDS011;34462;51.368;12.364;2022-10-26T08:17:44;5.38;;;2.65;;
15258;SDS011;34462;51.368;12.364;2022-10-26T08:20:12;5.05;;;2.90;;
15258;SDS011;34462;51.368;12.364;2022-10-26T08:22:40;5.25;;;2.70;;
15258;SDS011;34462;51.368;12.364;2022-10-26T08:25:08;6.60;;;2.80;;
15258;SDS011;34462;51.368;12.364;2022-10-26T08:27:36;5.63;;;2.47;;
15258;SDS011;34462;51.368;12.364;2022-10-26T08:30:04;5.53;;;2.92;;
15258;SDS011;34462;51.368;12.364;2022-10-26T08:32:34;3.72;;;2.30;;
15258;SDS011;34462;51.368;12.364;2022-10-26T08:35:02;5.47;;;2.85;;
15258;SDS011;34462;51.368;12.364;2022-10-26T08:37:31;5.57;;;2.80;;
15258;SDS011;34462;51.368;12.364;2022-10-26T08:39:59;3.53;;;2.70;;
15258;SDS011;34462;51.368;12.364;2022-10-26T08:42:29;6.05;;;3.03;;
15258;SDS011;34462;51.368;12.364;2022-10-26T08:45:07;4.60;;;2.80;;
15258;SDS011;34462;51.368;12.364;2022-10-26T08:47:59;8.18;;;2.72;;
15258;SDS011;34462;51.368;12.364;2022-10-26T08:50:33;5.10;;;3.03;;
15258;SDS011;34462;51.368;12.364;2022-10-26T08:53:10;4.13;;;2.47;;
15258;SDS011;34462;51.368;12.364;2022-10-26T08:55:47;4.68;;;2.83;;
15258;SDS011;34462;51.368;12.364;2022-10-26T08:58:21;3.45;;;2.80;;
15258;SDS011;34462;51.368;12.364;2022-10-26T09:00:56;6.10;;;3.35;;
15258;SDS011;34462;51.368;12.364;2022-10-26T09:03:27;2.90;;;2.47;;
15258;SDS011;34462;51.368;12.364;2022-10-26T09:05:59;3.50;;;2.72;;
15258;SDS011;34462;51.368;12.364;2022-10-26T09:08:50;3.00;;;2.60;;
15258;SDS011;34462;51.368;12.364;2022-10-26T09:11:33;3.30;;;2.80;;
15258;SDS011;34462;51.368;12.364;2022-10-26T09:14:19;4.32;;;2.60;;
15258;SDS011;34462;51.368;12.364;2022-10-26T09:17:05;3.33;;;2.95;;
15258;SDS011;34462;51.368;12.364;2022-10-26T09:19:55;4.47;;;3.10;;
15258;SDS011;34462;51.368;12.364;2022-10-26T09:22:44;5.05;;;2.67;;
15258;SDS011;34462;51.368;12.364;2022-10-26T09:25:26;3.28;;;2.97;;
15258;SDS011;34462;51.368;12.364;2022-10-26T09:28:04;4.20;;;2.70;;
15258;SDS011;34462;51.368;12.364;2022-10-26T09:30:42;3.72;;;3.10;;
15258;SDS011;34462;51.368;12.364;2022-10-26T09:33:13;3.70;;;3.25;;
15258;SDS011;34462;51.368;12.364;2022-10-26T09:35:48;4.68;;;3.35;;
15258;SDS011;34462;51.368;12.364;2022-10-26T09:38:23;5.82;;;2.65;;
15258;SDS011;34462;51.368;12.364;2022-10-26T09:40:57;4.97;;;3.00;;
15258;SDS011;34462;51.368;12.364;2022-10-26T09:43:32;3.60;;;2.85;;
15258;SDS011;34462;51.368;12.364;2022-10-26T09:46:09;3.67;;;2.70;;
15258;SDS011;34462;51.368;12.364;2022-10-26T09:48:47;5.15;;;2.85;;
15258;SDS011;34462;51.368;12.364;2022-10-26T09:51:23;4.15;;;2.70;;
15258;SDS011;34462;51.368;12.364;2022-10-26T09:53:53;3.15;;;2.60;;
15258;SDS011;34462;51.368;12.364;2022-10-26T09:56:23;3.15;;;2.83;;
15258;SDS011;34462;51.368;12.364;2022-10-26T09:58:55;3.97;;;2.63;;
15258;SDS011;34462;51.368;12.364;2022-10-26T10:01:30;3.72;;;2.90;;
15258;SDS011;34462;51.368;12.364;2022-10-26T10:04:08;4.55;;;2.75;;
15258;SDS011;34462;51.368;12.364;2022-10-26T10:06:47;4.45;;;2.60;;
15258;SDS011;34462;51.368;12.364;2022-10-26T10:09:17;6.20;;;3.00;;
15258;SDS011;34462;51.368;12.364;2022-10-26T10:11:48;5.68;;;2.95;;
15258;SDS011;34462;51.368;12.364;2022-10-26T10:14:23;3.97;;;3.00;;
15258;SDS011;34462;51.368;12.364;2022-10-26T10:16:54;3.35;;;2.47;;
15258;SDS011;34462;51.368;12.364;2022-10-26T10:19:27;4.93;;;3.10;;
15258;SDS011;34462;51.368;12.364;2022-10-26T10:21:59;5.65;;;2.40;;
15258;SDS011;34462;51.368;12.364;2022-10-26T10:24:35;3.90;;;2.70;;
15258;SDS011;34462;51.368;12.364;2022-10-26T10:27:15;3.35;;;2.30;;
15258;SDS011;34462;51.368;12.364;2022-10-26T10:29:45;5.93;;;3.67;;
15258;SDS011;34462;51.368;12.364;2022-10-26T10:32:16;5.05;;;2.72;;
15258;SDS011;34462;51.368;12.364;2022-10-26T10:34:47;4.05;;;2.70;;
15258;SDS011;34462;51.368;12.364;2022-10-26T10:37:21;5.57;;;2.55;;
15258;SDS011;34462;51.368;12.364;2022-10-26T10:39:56;5.03;;;2.67;;
15258;SDS011;34462;51.368;12.364;2022-10-26T10:42:29;4.90;;;2.92;;
15258;SDS011;34462;51.368;12.364;2022-10-26T10:45:00;4.13;;;3.00;;
15258;SDS011;34462;51.368;12.364;2022-10-26T10:47:30;4.43;;;2.92;;
15258;SDS011;34462;51.368;12.364;2022-10-26T10:50:01;3.97;;;2.60;;
15258;SDS011;34462;51.368;12.364;2022-10-26T10:52:38;4.40;;;3.17;;
15258;SDS011;34462;51.368;12.364;2022-10-26T10:55:15;3.30;;;2.72;;
15258;SDS011;34462;51.368;12.364;2022-10-26T11:00:46;4.32;;;2.58;;
15258;SDS011;34462;51.368;12.364;2022-10-26T11:03:37;3.55;;;2.63;;
15258;SDS011;34462;51.368;12.364;2022-10-26T11:06:34;5.60;;;2.75;;
15258;SDS011;34462;51.368;12.364;2022-10-26T11:09:08;3.75;;;2.63;;
15258;SDS011;34462;51.368;12.364;2022-10-26T11:11:41;5.78;;;2.65;;
15258;SDS011;34462;51.368;12.364;2022-10-26T11:14:15;3.35;;;2.55;;
15258;SDS011;34462;51.368;12.364;2022-10-26T11:16:50;6.38;;;2.45;;
15258;SDS011;34462;51.368;12.364;2022-10-26T11:19:25;4.32;;;2.55;;
15258;SDS011;34462;51.368;12.364;2022-10-26T11:22:01;3.58;;;3.00;;
15258;SDS011;34462;51.368;12.364;2022-10-26T11:24:39;6.43;;;3.00;;
15258;SDS011;34462;51.368;12.364;2022-10-26T11:27:16;4.40;;;2.83;;
15258;SDS011;34462;51.368;12.364;2022-10-26T11:29:53;5.63;;;3.00;;
15258;SDS011;34462;51.368;12.364;2022-10-26T11:32:29;5.32;;;2.70;;
15258;SDS011;34462;51.368;12.364;2022-10-26T11:35:10;2.97;;;2.30;;
15258;SDS011;34462;51.368;12.364;2022-10-26T11:37:47;3.53;;;2.47;;
15258;SDS011;34462;51.368;12.364;2022-10-26T11:40:27;2.88;;;2.25;;
15258;SDS011;34462;51.368;12.364;2022-10-26T11:43:07;3.20;;;2.60;;
15258;SDS011;34462;51.368;12.364;2022-10-26T11:45:43;5.63;;;2.38;;
15258;SDS011;34462;51.368;12.364;2022-10-26T11:48:15;2.90;;;2.17;;
15258;SDS011;34462;51.368;12.364;2022-10-26T11:50:52;4.93;;;2.47;;
15258;SDS011;34462;51.368;12.364;2022-10-26T11:53:25;3.03;;;2.20;;
15258;SDS011;34462;51.368;12.364;2022-10-26T11:56:03;4.60;;;2.40;;
15258;SDS011;34462;51.368;12.364;2022-10-26T11:58:40;4.03;;;2.10;;
15258;SDS011;34462;51.368;12.364;2022-10-26T12:01:11;2.90;;;2.05;;
15258;SDS011;34462;51.368;12.364;2022-10-26T12:03:44;4.65;;;2.10;;
15258;SDS011;34462;51.368;12.364;2022-10-26T12:06:19;3.58;;;2.03;;
15258;SDS011;34462;51.368;12.364;2022-10-26T12:08:54;4.55;;;1.98;;
15258;SDS011;34462;51.368;12.364;2022-10-26T12:11:37;3.88;;;2.17;;
15258;SDS011;34462;51.368;12.364;2022-10-26T12:14:14;5.80;;;2.28;;
15258;SDS011;34462;51.368;12.364;2022-10-26T12:16:52;3.97;;;2.33;;
15258;SDS011;34462;51.368;12.364;2022-10-26T12:19:30;4.45;;;2.22;;
15258;SDS011;34462;51.368;12.364;2022-10-26T12:22:10;3.08;;;2.05;;
15258;SDS011;34462;51.368;12.364;2022-10-26T12:24:42;3.90;;;2.28;;
15258;SDS011;34462;51.368;12.364;2022-10-26T12:27:29;5.22;;;2.40;;
15258;SDS011;34462;51.368;12.364;2022-10-26T12:30:22;3.17;;;2.00;;
15258;SDS011;34462;51.368;12.364;2022-10-26T12:32:53;2.67;;;1.90;;
15258;SDS011;34462;51.368;12.364;2022-10-26T12:35:40;3.33;;;2.17;;
15258;SDS011;34462;51.368;12.364;2022-10-26T12:41:25;2.95;;;2.10;;
15258;SDS011;34462;51.368;12.364;2022-10-26T12:43:56;3.53;;;2.10;;
15258;SDS011;34462;51.368;12.364;2022-10-26T12:46:37;3.65;;;2.70;;
15258;SDS011;34462;51.368;12.364;2022-10-26T12:52:42;3.33;;;2.10;;
15258;SDS011;34462;51.368;12.364;2022-10-26T12:55:22;2.78;;;2.13;;
15258;SDS011;34462;51.368;12.364;2022-10-26T12:58:33;2.90;;;1.88;;
15258;SDS011;34462;51.368;12.364;2022-10-26T13:01:43;5.45;;;2.05;;
15258;SDS011;34462;51.368;12.364;2022-10-26T13:07:33;3.75;;;1.92;;
15258;SDS011;34462;51.368;12.364;2022-10-26T13:10:15;2.95;;;2.00;;
15258;SDS011;34462;51.368;12.364;2022-10-26T13:12:48;4.43;;;1.80;;
15258;SDS011;34462;51.368;12.364;2022-10-26T13:15:21;5.05;;;1.90;;
15258;SDS011;34462;51.368;12.364;2022-10-26T13:18:07;2.30;;;2.10;;
15258;SDS011;34462;51.368;12.364;2022-10-26T13:20:52;4.93;;;1.90;;
15258;SDS011;34462;51.368;12.364;2022-10-26T13:23:37;3.30;;;1.90;;
15258;SDS011;34462;51.368;12.364;2022-10-26T13:26:09;3.25;;;2.00;;
15258;SDS011;34462;51.368;12.364;2022-10-26T13:28:44;5.65;;;2.40;;
15258;SDS011;34462;51.368;12.364;2022-10-26T13:34:26;5.53;;;2.30;;
15258;SDS011;34462;51.368;12.364;2022-10-26T13:37:11;2.83;;;2.20;;
15258;SDS011;34462;51.368;12.364;2022-10-26T13:39:48;3.22;;;2.15;;
15258;SDS011;34462;51.368;12.364;2022-10-26T13:42:21;4.25;;;2.25;;
15258;SDS011;34462;51.368;12.364;2022-10-26T13:44:54;3.88;;;2.25;;
15258;SDS011;34462;51.368;12.364;2022-10-26T13:47:33;2.63;;;2.00;;
15258;SDS011;34462;51.368;12.364;2022-10-26T13:50:17;2.90;;;1.92;;
15258;SDS011;34462;51.368;12.364;2022-10-26T13:52:54;2.40;;;1.90;;
15258;SDS011;34462;51.368;12.364;2022-10-26T13:55:28;3.75;;;2.10;;
15258;SDS011;34462;51.368;12.364;2022-10-26T13:58:08;3.65;;;2.53;;
15258;SDS011;34462;51.368;12.364;2022-10-26T14:01:01;2.45;;;1.83;;
15258;SDS011;34462;51.368;12.364;2022-10-26T14:03:39;4.65;;;2.30;;
15258;SDS011;34462;51.368;12.364;2022-10-26T14:06:12;2.38;;;1.98;;
15258;SDS011;34462;51.368;12.364;2022-10-26T14:08:45;3.13;;;2.10;;
15258;SDS011;34462;51.368;12.364;2022-10-26T14:11:18;3.78;;;2.25;;
15258;SDS011;34462;51.368;12.364;2022-10-26T14:13:56;3.70;;;2.28;;
15258;SDS011;34462;51.368;12.364;2022-10-26T14:16:25;4.07;;;2.03;;
15258;SDS011;34462;51.368;12.364;2022-10-26T14:18:57;3.67;;;2.08;;
15258;SDS011;34462;51.368;12.364;2022-10-26T14:21:26;4.50;;;2.35;;
15258;SDS011;34462;51.368;12.364;2022-10-26T14:23:56;2.88;;;2.22;;
15258;SDS011;34462;51.368;12.364;2022-10-26T14:26:29;2.58;;;2.00;;
15258;SDS011;34462;51.368;12.364;2022-10-26T14:29:13;6.00;;;2.30;;
15258;SDS011;34462;51.368;12.364;2022-10-26T14:31:45;5.07;;;2.25;;
15258;SDS011;34462;51.368;12.364;2022-10-26T14:34:15;3.22;;;2.40;;
15258;SDS011;34462;51.368;12.364;2022-10-26T14:36:48;4.80;;;2.58;;
15258;SDS011;34462;51.368;12.364;2022-10-26T14:39:30;5.07;;;2.75;;
15258;SDS011;34462;51.368;12.364;2022-10-26T14:42:06;4.00;;;2.90;;
15258;SDS011;34462;51.368;12.364;2022-10-26T14:44:47;5.10;;;2.47;;
15258;SDS011;34462;51.368;12.364;2022-10-26T14:47:18;8.90;;;2.55;;
15258;SDS011;34462;51.368;12.364;2022-10-26T14:49:50;3.95;;;2.00;;
15258;SDS011;34462;51.368;12.364;2022-10-26T14:52:22;3.80;;;2.70;;
15258;SDS011;34462;51.368;12.364;2022-10-26T14:54:59;3.75;;;2.42;;
15258;SDS011;34462;51.368;12.364;2022-10-26T14:57:38;3.78;;;2.22;;
15258;SDS011;34462;51.368;12.364;2022-10-26T15:00:12;2.85;;;2.20;;
15258;SDS011;34462;51.368;12.364;2022-10-26T15:02:43;2.85;;;2.55;;
15258;SDS011;34462;51.368;12.364;2022-10-26T15:05:16;5.80;;;2.30;;
15258;SDS011;34462;51.368;12.364;2022-10-26T15:07:49;6.57;;;2.42;;
15258;SDS011;34462;51.368;12.364;2022-10-26T15:13:17;4.60;;;3.10;;
15258;SDS011;34462;51.368;12.364;2022-10-26T15:15:53;3.60;;;3.30;;
15258;SDS011;34462;51.368;12.364;2022-10-26T15:18:25;4.75;;;3.60;;
15258;SDS011;34462;51.368;12.364;2022-10-26T15:20:55;3.85;;;2.80;;
15258;SDS011;34462;51.368;12.364;2022-10-26T15:23:26;3.22;;;2.33;;
15258;SDS011;34462;51.368;12.364;2022-10-26T15:25:57;4.82;;;2.78;;
15258;SDS011;34462;51.368;12.364;2022-10-26T15:28:29;3.83;;;2.55;;
15258;SDS011;34462;51.368;12.364;2022-10-26T15:31:05;2.47;;;2.28;;
15258;SDS011;34462;51.368;12.364;2022-10-26T15:34:11;3.20;;;2.83;;